sensor_id;sensor_type;location;lat;lon;timestamp;temperature;humidity
51500;DHT22;39101;53.478;6.158;2024-02-21T00:02:08;8.70;99.90
51500;DHT22;39101;53.478;6.158;2024-02-21T00:04:34;8.60;99.90
51500;DHT22;39101;53.478;6.158;2024-02-21T00:07:00;8.60;99.90
51500;DHT22;39101;53.478;6.158;2024-02-21T00:09:26;8.50;99.90
51500;DHT22;39101;53.478;6.158;2024-02-21T00:11:51;8.70;99.90
51500;DHT22;39101;53.478;6.158;2024-02-21T00:14:17;8.60;99.90
51500;DHT22;39101;53.478;6.158;2024-02-21T00:16:43;8.40;99.90
51500;DHT22;39101;53.478;6.158;2024-02-21T00:19:09;8.40;99.90
51500;DHT22;39101;53.478;6.158;2024-02-21T00:21:34;8.60;99.90
51500;DHT22;39101;53.478;6.158;2024-02-21T00:24:00;8.60;99.90
51500;DHT22;39101;53.478;6.158;2024-02-21T00:26:26;8.50;99.90
51500;DHT22;39101;53.478;6.158;2024-02-21T00:28:51;8.70;99.90
51500;DHT22;39101;53.478;6.158;2024-02-21T00:31:17;8.70;99.90
51500;DHT22;39101;53.478;6.158;2024-02-21T00:33:43;8.60;99.90
51500;DHT22;39101;53.478;6.158;2024-02-21T00:36:08;8.80;99.90
51500;DHT22;39101;53.478;6.158;2024-02-21T00:38:34;8.80;99.90
51500;DHT22;39101;53.478;6.158;2024-02-21T00:41:00;8.70;99.90
51500;DHT22;39101;53.478;6.158;2024-02-21T00:43:25;8.80;99.90
51500;DHT22;39101;53.478;6.158;2024-02-21T00:45:51;8.80;99.90
51500;DHT22;39101;53.478;6.158;2024-02-21T00:48:17;8.70;99.90
51500;DHT22;39101;53.478;6.158;2024-02-21T00:50:42;8.80;99.90
51500;DHT22;39101;53.478;6.158;2024-02-21T00:53:08;8.80;99.90
51500;DHT22;39101;53.478;6.158;2024-02-21T00:55:35;8.90;99.90
51500;DHT22;39101;53.478;6.158;2024-02-21T00:58:01;8.80;99.90
51500;DHT22;39101;53.478;6.158;2024-02-21T01:00:26;8.90;99.90
51500;DHT22;39101;53.478;6.158;2024-02-21T01:02:52;8.90;99.90
51500;DHT22;39101;53.478;6.158;2024-02-21T01:05:18;8.70;99.90
51500;DHT22;39101;53.478;6.158;2024-02-21T01:07:44;8.70;99.90
51500;DHT22;39101;53.478;6.158;2024-02-21T01:10:10;8.80;99.90
51500;DHT22;39101;53.478;6.158;2024-02-21T01:12:36;8.70;99.90
51500;DHT22;39101;53.478;6.158;2024-02-21T01:15:02;8.90;99.90
51500;DHT22;39101;53.478;6.158;2024-02-21T01:17:28;8.80;99.90
51500;DHT22;39101;53.478;6.158;2024-02-21T01:19:54;9.00;99.90
51500;DHT22;39101;53.478;6.158;2024-02-21T01:22:19;9.00;99.90
51500;DHT22;39101;53.478;6.158;2024-02-21T01:24:45;8.90;99.90
51500;DHT22;39101;53.478;6.158;2024-02-21T01:27:11;8.90;99.90
51500;DHT22;39101;53.478;6.158;2024-02-21T01:29:37;8.90;99.90
51500;DHT22;39101;53.478;6.158;2024-02-21T01:32:02;8.90;99.90
51500;DHT22;39101;53.478;6.158;2024-02-21T01:34:28;8.80;99.90
51500;DHT22;39101;53.478;6.158;2024-02-21T01:36:54;8.90;99.90
51500;DHT22;39101;53.478;6.158;2024-02-21T01:39:20;8.90;99.90
51500;DHT22;39101;53.478;6.158;2024-02-21T01:41:45;8.70;99.90
51500;DHT22;39101;53.478;6.158;2024-02-21T01:44:11;8.90;99.90
51500;DHT22;39101;53.478;6.158;2024-02-21T01:46:37;8.80;99.90
51500;DHT22;39101;53.478;6.158;2024-02-21T01:49:03;8.70;99.90
51500;DHT22;39101;53.478;6.158;2024-02-21T01:51:30;8.80;99.90
51500;DHT22;39101;53.478;6.158;2024-02-21T01:53:56;8.70;99.90
51500;DHT22;39101;53.478;6.158;2024-02-21T01:56:23;8.70;99.90
51500;DHT22;39101;53.478;6.158;2024-02-21T01:58:49;8.70;99.90
51500;DHT22;39101;53.478;6.158;2024-02-21T02:01:16;8.70;99.90
51500;DHT22;39101;53.478;6.158;2024-02-21T02:03:44;8.70;99.90
51500;DHT22;39101;53.478;6.158;2024-02-21T02:06:10;8.70;99.90
51500;DHT22;39101;53.478;6.158;2024-02-21T02:08:36;8.60;99.90
51500;DHT22;39101;53.478;6.158;2024-02-21T02:11:02;8.80;99.90
51500;DHT22;39101;53.478;6.158;2024-02-21T02:13:28;8.90;99.90
51500;DHT22;39101;53.478;6.158;2024-02-21T02:15:54;8.70;99.90
51500;DHT22;39101;53.478;6.158;2024-02-21T02:18:20;8.90;99.90
51500;DHT22;39101;53.478;6.158;2024-02-21T02:20:47;8.90;99.90
51500;DHT22;39101;53.478;6.158;2024-02-21T02:25:50;8.60;99.90
51500;DHT22;39101;53.478;6.158;2024-02-21T02:28:19;8.70;99.90
51500;DHT22;39101;53.478;6.158;2024-02-21T02:30:45;8.60;99.90
51500;DHT22;39101;53.478;6.158;2024-02-21T02:33:10;8.70;99.90
51500;DHT22;39101;53.478;6.158;2024-02-21T02:35:36;8.70;99.90
51500;DHT22;39101;53.478;6.158;2024-02-21T02:38:05;8.60;99.90
51500;DHT22;39101;53.478;6.158;2024-02-21T02:40:33;8.60;99.90
51500;DHT22;39101;53.478;6.158;2024-02-21T02:42:58;8.70;99.90
51500;DHT22;39101;53.478;6.158;2024-02-21T02:45:24;8.60;99.90
51500;DHT22;39101;53.478;6.158;2024-02-21T02:47:52;8.50;99.90
51500;DHT22;39101;53.478;6.158;2024-02-21T02:50:19;8.60;99.90
51500;DHT22;39101;53.478;6.158;2024-02-21T02:52:46;8.70;99.90
51500;DHT22;39101;53.478;6.158;2024-02-21T02:55:11;8.60;99.90
51500;DHT22;39101;53.478;6.158;2024-02-21T02:57:37;8.50;99.90
51500;DHT22;39101;53.478;6.158;2024-02-21T03:00:04;8.60;99.90
51500;DHT22;39101;53.478;6.158;2024-02-21T03:02:30;8.60;99.90
51500;DHT22;39101;53.478;6.158;2024-02-21T03:04:57;8.50;99.90
51500;DHT22;39101;53.478;6.158;2024-02-21T03:07:25;8.50;99.90
51500;DHT22;39101;53.478;6.158;2024-02-21T03:09:51;8.50;99.90
51500;DHT22;39101;53.478;6.158;2024-02-21T03:12:17;8.60;99.90
51500;DHT22;39101;53.478;6.158;2024-02-21T03:14:53;8.60;99.90
51500;DHT22;39101;53.478;6.158;2024-02-21T03:17:19;8.60;99.90
51500;DHT22;39101;53.478;6.158;2024-02-21T03:19:44;8.50;99.90
51500;DHT22;39101;53.478;6.158;2024-02-21T03:22:10;8.50;99.90
51500;DHT22;39101;53.478;6.158;2024-02-21T03:24:36;8.70;99.90
51500;DHT22;39101;53.478;6.158;2024-02-21T03:27:01;8.50;99.90
51500;DHT22;39101;53.478;6.158;2024-02-21T03:29:27;8.60;99.90
51500;DHT22;39101;53.478;6.158;2024-02-21T03:31:53;8.40;99.90
51500;DHT22;39101;53.478;6.158;2024-02-21T03:34:19;8.60;99.90
51500;DHT22;39101;53.478;6.158;2024-02-21T03:36:44;8.60;99.90
51500;DHT22;39101;53.478;6.158;2024-02-21T03:39:10;8.40;99.90
51500;DHT22;39101;53.478;6.158;2024-02-21T03:41:36;8.60;99.90
51500;DHT22;39101;53.478;6.158;2024-02-21T03:44:01;8.50;99.90
51500;DHT22;39101;53.478;6.158;2024-02-21T03:46:27;8.50;99.90
51500;DHT22;39101;53.478;6.158;2024-02-21T03:48:53;8.50;99.90
51500;DHT22;39101;53.478;6.158;2024-02-21T03:51:19;8.60;99.90
51500;DHT22;39101;53.478;6.158;2024-02-21T03:53:44;8.60;99.90
51500;DHT22;39101;53.478;6.158;2024-02-21T03:56:10;8.60;99.90
51500;DHT22;39101;53.478;6.158;2024-02-21T03:58:36;8.50;99.90
51500;DHT22;39101;53.478;6.158;2024-02-21T04:01:02;8.50;99.90
51500;DHT22;39101;53.478;6.158;2024-02-21T04:03:29;8.50;99.90
51500;DHT22;39101;53.478;6.158;2024-02-21T04:05:54;8.50;99.90
51500;DHT22;39101;53.478;6.158;2024-02-21T04:08:21;8.50;99.90
51500;DHT22;39101;53.478;6.158;2024-02-21T04:10:47;8.60;99.90
51500;DHT22;39101;53.478;6.158;2024-02-21T04:13:13;8.50;99.90
51500;DHT22;39101;53.478;6.158;2024-02-21T04:15:38;8.60;99.90
51500;DHT22;39101;53.478;6.158;2024-02-21T04:18:04;8.40;99.90
51500;DHT22;39101;53.478;6.158;2024-02-21T04:20:30;8.50;99.90
51500;DHT22;39101;53.478;6.158;2024-02-21T04:22:56;8.70;99.90
51500;DHT22;39101;53.478;6.158;2024-02-21T04:25:22;8.80;99.90
51500;DHT22;39101;53.478;6.158;2024-02-21T04:27:47;8.60;99.90
51500;DHT22;39101;53.478;6.158;2024-02-21T04:30:13;8.70;99.90
51500;DHT22;39101;53.478;6.158;2024-02-21T04:32:39;8.60;99.90
51500;DHT22;39101;53.478;6.158;2024-02-21T04:35:05;8.70;99.90
51500;DHT22;39101;53.478;6.158;2024-02-21T04:37:32;8.50;99.90
51500;DHT22;39101;53.478;6.158;2024-02-21T04:39:58;8.60;99.90
51500;DHT22;39101;53.478;6.158;2024-02-21T04:42:23;8.60;99.90
51500;DHT22;39101;53.478;6.158;2024-02-21T04:44:49;8.80;99.90
51500;DHT22;39101;53.478;6.158;2024-02-21T04:47:15;8.70;99.90
51500;DHT22;39101;53.478;6.158;2024-02-21T04:49:40;8.70;99.90
51500;DHT22;39101;53.478;6.158;2024-02-21T04:52:06;8.60;99.90
51500;DHT22;39101;53.478;6.158;2024-02-21T04:54:32;8.70;99.90
51500;DHT22;39101;53.478;6.158;2024-02-21T04:56:57;8.60;99.90
51500;DHT22;39101;53.478;6.158;2024-02-21T04:59:23;8.60;99.90
51500;DHT22;39101;53.478;6.158;2024-02-21T05:01:49;8.60;99.90
51500;DHT22;39101;53.478;6.158;2024-02-21T05:04:15;8.40;99.90
51500;DHT22;39101;53.478;6.158;2024-02-21T05:06:41;8.40;99.90
51500;DHT22;39101;53.478;6.158;2024-02-21T05:09:08;8.40;99.90
51500;DHT22;39101;53.478;6.158;2024-02-21T05:11:37;8.60;99.90
51500;DHT22;39101;53.478;6.158;2024-02-21T05:14:03;8.40;99.90
51500;DHT22;39101;53.478;6.158;2024-02-21T05:16:30;8.50;99.90
51500;DHT22;39101;53.478;6.158;2024-02-21T05:18:56;8.50;99.90
51500;DHT22;39101;53.478;6.158;2024-02-21T05:21:25;8.40;99.90
51500;DHT22;39101;53.478;6.158;2024-02-21T05:23:52;8.50;99.90
51500;DHT22;39101;53.478;6.158;2024-02-21T05:26:25;8.60;99.90
51500;DHT22;39101;53.478;6.158;2024-02-21T05:28:51;8.50;99.90
51500;DHT22;39101;53.478;6.158;2024-02-21T05:31:20;8.60;99.90
51500;DHT22;39101;53.478;6.158;2024-02-21T05:33:46;8.30;99.90
51500;DHT22;39101;53.478;6.158;2024-02-21T05:36:13;8.30;99.90
51500;DHT22;39101;53.478;6.158;2024-02-21T05:38:38;8.40;99.90
51500;DHT22;39101;53.478;6.158;2024-02-21T05:41:04;8.50;99.90
51500;DHT22;39101;53.478;6.158;2024-02-21T05:43:30;8.30;99.90
51500;DHT22;39101;53.478;6.158;2024-02-21T05:45:56;8.50;99.90
51500;DHT22;39101;53.478;6.158;2024-02-21T05:48:23;8.40;99.90
51500;DHT22;39101;53.478;6.158;2024-02-21T05:50:50;8.30;99.90
51500;DHT22;39101;53.478;6.158;2024-02-21T05:53:15;8.20;99.90
51500;DHT22;39101;53.478;6.158;2024-02-21T05:55:41;8.20;99.90
51500;DHT22;39101;53.478;6.158;2024-02-21T05:58:07;8.10;99.90
51500;DHT22;39101;53.478;6.158;2024-02-21T06:00:35;8.30;99.90
51500;DHT22;39101;53.478;6.158;2024-02-21T06:03:02;8.20;99.90
51500;DHT22;39101;53.478;6.158;2024-02-21T06:05:28;8.10;99.90
51500;DHT22;39101;53.478;6.158;2024-02-21T06:07:53;8.10;99.90
51500;DHT22;39101;53.478;6.158;2024-02-21T06:10:19;8.20;99.90
51500;DHT22;39101;53.478;6.158;2024-02-21T06:12:45;8.40;99.90
51500;DHT22;39101;53.478;6.158;2024-02-21T06:15:10;8.20;99.90
51500;DHT22;39101;53.478;6.158;2024-02-21T06:17:36;8.40;99.90
51500;DHT22;39101;53.478;6.158;2024-02-21T06:20:02;8.30;99.90
51500;DHT22;39101;53.478;6.158;2024-02-21T06:22:28;8.40;99.90
51500;DHT22;39101;53.478;6.158;2024-02-21T06:24:53;8.30;99.90
51500;DHT22;39101;53.478;6.158;2024-02-21T06:27:19;8.40;99.90
51500;DHT22;39101;53.478;6.158;2024-02-21T06:29:45;8.40;99.90
51500;DHT22;39101;53.478;6.158;2024-02-21T06:32:11;8.30;99.90
51500;DHT22;39101;53.478;6.158;2024-02-21T06:34:36;8.20;99.90
51500;DHT22;39101;53.478;6.158;2024-02-21T06:37:02;8.30;99.90
51500;DHT22;39101;53.478;6.158;2024-02-21T06:39:29;8.20;99.90
51500;DHT22;39101;53.478;6.158;2024-02-21T06:41:55;8.30;99.90
51500;DHT22;39101;53.478;6.158;2024-02-21T06:44:22;8.40;99.90
51500;DHT22;39101;53.478;6.158;2024-02-21T06:46:47;8.20;99.90
51500;DHT22;39101;53.478;6.158;2024-02-21T06:49:13;8.20;99.90
51500;DHT22;39101;53.478;6.158;2024-02-21T06:51:44;8.40;99.90
51500;DHT22;39101;53.478;6.158;2024-02-21T06:54:10;8.20;99.90
51500;DHT22;39101;53.478;6.158;2024-02-21T06:56:37;8.30;99.90
51500;DHT22;39101;53.478;6.158;2024-02-21T06:59:03;8.20;99.90
51500;DHT22;39101;53.478;6.158;2024-02-21T07:01:29;8.20;99.90
51500;DHT22;39101;53.478;6.158;2024-02-21T07:03:55;8.20;99.90
51500;DHT22;39101;53.478;6.158;2024-02-21T07:06:21;8.30;99.90
51500;DHT22;39101;53.478;6.158;2024-02-21T07:08:47;8.30;99.90
51500;DHT22;39101;53.478;6.158;2024-02-21T07:11:13;8.30;99.90
51500;DHT22;39101;53.478;6.158;2024-02-21T07:13:38;8.20;99.90
51500;DHT22;39101;53.478;6.158;2024-02-21T07:16:05;8.30;99.90
51500;DHT22;39101;53.478;6.158;2024-02-21T07:18:30;8.40;99.90
51500;DHT22;39101;53.478;6.158;2024-02-21T07:20:56;8.40;99.90
51500;DHT22;39101;53.478;6.158;2024-02-21T07:23:22;8.40;99.90
51500;DHT22;39101;53.478;6.158;2024-02-21T07:25:48;8.30;99.90
51500;DHT22;39101;53.478;6.158;2024-02-21T07:28:13;8.40;99.90
51500;DHT22;39101;53.478;6.158;2024-02-21T07:30:40;8.30;99.90
51500;DHT22;39101;53.478;6.158;2024-02-21T07:33:06;8.30;99.90
51500;DHT22;39101;53.478;6.158;2024-02-21T07:35:32;8.40;99.90
51500;DHT22;39101;53.478;6.158;2024-02-21T07:37:58;8.20;99.90
51500;DHT22;39101;53.478;6.158;2024-02-21T07:40:24;8.40;99.90
51500;DHT22;39101;53.478;6.158;2024-02-21T07:42:49;8.30;99.90
51500;DHT22;39101;53.478;6.158;2024-02-21T07:45:15;8.30;99.90
51500;DHT22;39101;53.478;6.158;2024-02-21T07:47:41;8.40;99.90
51500;DHT22;39101;53.478;6.158;2024-02-21T07:50:07;8.40;99.90
51500;DHT22;39101;53.478;6.158;2024-02-21T07:52:34;8.30;99.90
51500;DHT22;39101;53.478;6.158;2024-02-21T07:55:00;8.50;99.90
51500;DHT22;39101;53.478;6.158;2024-02-21T07:57:25;8.30;99.90
51500;DHT22;39101;53.478;6.158;2024-02-21T07:59:51;8.50;99.90
51500;DHT22;39101;53.478;6.158;2024-02-21T08:02:17;8.40;99.90
51500;DHT22;39101;53.478;6.158;2024-02-21T08:04:42;8.40;99.90
51500;DHT22;39101;53.478;6.158;2024-02-21T08:07:08;8.50;99.90
51500;DHT22;39101;53.478;6.158;2024-02-21T08:09:35;8.50;99.90
51500;DHT22;39101;53.478;6.158;2024-02-21T08:12:02;8.50;99.90
51500;DHT22;39101;53.478;6.158;2024-02-21T08:14:28;8.50;99.90
51500;DHT22;39101;53.478;6.158;2024-02-21T08:16:53;8.40;99.90
51500;DHT22;39101;53.478;6.158;2024-02-21T08:19:21;8.60;99.90
51500;DHT22;39101;53.478;6.158;2024-02-21T08:21:46;8.50;99.90
51500;DHT22;39101;53.478;6.158;2024-02-21T08:24:15;8.50;99.90
51500;DHT22;39101;53.478;6.158;2024-02-21T08:26:41;8.60;99.90
51500;DHT22;39101;53.478;6.158;2024-02-21T08:29:07;8.60;99.90
51500;DHT22;39101;53.478;6.158;2024-02-21T08:31:33;8.50;99.90
51500;DHT22;39101;53.478;6.158;2024-02-21T08:34:02;8.50;99.90
51500;DHT22;39101;53.478;6.158;2024-02-21T08:36:34;8.70;99.90
51500;DHT22;39101;53.478;6.158;2024-02-21T08:39:00;8.50;99.90
51500;DHT22;39101;53.478;6.158;2024-02-21T08:41:26;8.60;99.90
51500;DHT22;39101;53.478;6.158;2024-02-21T08:43:53;8.60;99.90
51500;DHT22;39101;53.478;6.158;2024-02-21T08:46:22;8.60;99.90
51500;DHT22;39101;53.478;6.158;2024-02-21T08:48:50;8.60;99.90
51500;DHT22;39101;53.478;6.158;2024-02-21T08:51:16;8.70;99.90
51500;DHT22;39101;53.478;6.158;2024-02-21T08:53:43;8.70;99.90
51500;DHT22;39101;53.478;6.158;2024-02-21T08:56:09;8.70;99.90
51500;DHT22;39101;53.478;6.158;2024-02-21T08:58:36;8.70;99.90
51500;DHT22;39101;53.478;6.158;2024-02-21T09:01:03;8.70;99.90
51500;DHT22;39101;53.478;6.158;2024-02-21T09:03:33;8.70;99.90
51500;DHT22;39101;53.478;6.158;2024-02-21T09:05:59;8.80;99.90
51500;DHT22;39101;53.478;6.158;2024-02-21T09:08:26;8.80;99.90
51500;DHT22;39101;53.478;6.158;2024-02-21T09:10:52;8.70;99.90
51500;DHT22;39101;53.478;6.158;2024-02-21T09:13:18;8.70;99.90
51500;DHT22;39101;53.478;6.158;2024-02-21T09:15:44;8.80;99.90
51500;DHT22;39101;53.478;6.158;2024-02-21T09:18:10;8.80;99.90
51500;DHT22;39101;53.478;6.158;2024-02-21T09:20:35;8.70;99.90
51500;DHT22;39101;53.478;6.158;2024-02-21T09:23:01;8.70;99.90
51500;DHT22;39101;53.478;6.158;2024-02-21T09:25:27;8.70;99.90
51500;DHT22;39101;53.478;6.158;2024-02-21T09:27:56;8.70;99.90
51500;DHT22;39101;53.478;6.158;2024-02-21T09:30:23;8.60;99.90
51500;DHT22;39101;53.478;6.158;2024-02-21T09:32:49;8.70;99.90
51500;DHT22;39101;53.478;6.158;2024-02-21T09:35:15;8.70;99.90
51500;DHT22;39101;53.478;6.158;2024-02-21T09:37:40;8.80;99.90
51500;DHT22;39101;53.478;6.158;2024-02-21T09:40:07;8.80;99.90
51500;DHT22;39101;53.478;6.158;2024-02-21T09:42:38;8.80;99.90
51500;DHT22;39101;53.478;6.158;2024-02-21T09:45:23;8.90;99.90
51500;DHT22;39101;53.478;6.158;2024-02-21T09:50:24;8.90;99.90
51500;DHT22;39101;53.478;6.158;2024-02-21T09:52:52;9.00;99.90
51500;DHT22;39101;53.478;6.158;2024-02-21T09:55:20;8.90;99.90
51500;DHT22;39101;53.478;6.158;2024-02-21T09:57:46;9.00;99.90
51500;DHT22;39101;53.478;6.158;2024-02-21T10:00:14;9.10;99.90
51500;DHT22;39101;53.478;6.158;2024-02-21T10:02:48;8.90;99.90
51500;DHT22;39101;53.478;6.158;2024-02-21T10:05:14;9.10;99.90
51500;DHT22;39101;53.478;6.158;2024-02-21T10:07:40;9.10;99.90
51500;DHT22;39101;53.478;6.158;2024-02-21T10:10:07;9.10;99.90
51500;DHT22;39101;53.478;6.158;2024-02-21T10:12:33;9.10;99.90
51500;DHT22;39101;53.478;6.158;2024-02-21T10:15:06;9.10;99.90
51500;DHT22;39101;53.478;6.158;2024-02-21T10:17:35;9.10;99.90
51500;DHT22;39101;53.478;6.158;2024-02-21T10:20:09;9.10;99.90
51500;DHT22;39101;53.478;6.158;2024-02-21T10:22:35;9.10;99.90
51500;DHT22;39101;53.478;6.158;2024-02-21T10:25:11;9.20;99.90
51500;DHT22;39101;53.478;6.158;2024-02-21T10:27:38;9.30;99.90
51500;DHT22;39101;53.478;6.158;2024-02-21T10:30:12;9.20;99.90
51500;DHT22;39101;53.478;6.158;2024-02-21T10:32:51;9.30;99.90
51500;DHT22;39101;53.478;6.158;2024-02-21T10:35:33;9.30;99.90
51500;DHT22;39101;53.478;6.158;2024-02-21T10:37:59;9.40;99.90
51500;DHT22;39101;53.478;6.158;2024-02-21T10:40:27;9.40;99.90
51500;DHT22;39101;53.478;6.158;2024-02-21T10:42:58;9.40;99.90
51500;DHT22;39101;53.478;6.158;2024-02-21T10:45:35;9.50;99.90
51500;DHT22;39101;53.478;6.158;2024-02-21T10:50:32;9.50;99.90
51500;DHT22;39101;53.478;6.158;2024-02-21T10:53:31;9.50;99.90
51500;DHT22;39101;53.478;6.158;2024-02-21T10:56:06;9.60;99.90
51500;DHT22;39101;53.478;6.158;2024-02-21T10:59:24;9.60;99.90
51500;DHT22;39101;53.478;6.158;2024-02-21T11:01:51;9.70;99.90
51500;DHT22;39101;53.478;6.158;2024-02-21T11:04:18;9.70;99.90
51500;DHT22;39101;53.478;6.158;2024-02-21T11:06:44;9.70;99.90
51500;DHT22;39101;53.478;6.158;2024-02-21T11:09:11;9.70;99.90
51500;DHT22;39101;53.478;6.158;2024-02-21T11:11:45;9.60;99.90
51500;DHT22;39101;53.478;6.158;2024-02-21T11:14:18;9.70;99.90
51500;DHT22;39101;53.478;6.158;2024-02-21T11:16:44;9.60;99.90
51500;DHT22;39101;53.478;6.158;2024-02-21T11:19:25;9.60;99.90
51500;DHT22;39101;53.478;6.158;2024-02-21T11:21:52;9.70;99.90
51500;DHT22;39101;53.478;6.158;2024-02-21T11:24:32;9.70;99.90
51500;DHT22;39101;53.478;6.158;2024-02-21T11:27:12;9.60;99.90
51500;DHT22;39101;53.478;6.158;2024-02-21T11:29:49;9.60;99.90
51500;DHT22;39101;53.478;6.158;2024-02-21T11:32:20;9.70;99.90
51500;DHT22;39101;53.478;6.158;2024-02-21T11:35:06;9.60;99.90
51500;DHT22;39101;53.478;6.158;2024-02-21T11:37:33;9.70;99.90
51500;DHT22;39101;53.478;6.158;2024-02-21T11:40:00;9.50;99.90
51500;DHT22;39101;53.478;6.158;2024-02-21T11:42:29;9.60;99.90
51500;DHT22;39101;53.478;6.158;2024-02-21T11:45:00;9.70;99.90
51500;DHT22;39101;53.478;6.158;2024-02-21T11:47:28;9.60;99.90
51500;DHT22;39101;53.478;6.158;2024-02-21T11:49:54;9.60;99.90
51500;DHT22;39101;53.478;6.158;2024-02-21T11:52:25;9.50;99.90
51500;DHT22;39101;53.478;6.158;2024-02-21T11:54:51;9.60;99.90
51500;DHT22;39101;53.478;6.158;2024-02-21T11:57:22;9.60;99.90
51500;DHT22;39101;53.478;6.158;2024-02-21T11:59:47;9.70;99.90
51500;DHT22;39101;53.478;6.158;2024-02-21T12:02:14;9.60;99.90
51500;DHT22;39101;53.478;6.158;2024-02-21T12:04:41;9.60;99.90
51500;DHT22;39101;53.478;6.158;2024-02-21T12:07:07;9.70;99.90
51500;DHT22;39101;53.478;6.158;2024-02-21T12:09:34;9.70;99.90
51500;DHT22;39101;53.478;6.158;2024-02-21T12:12:04;9.60;99.90
51500;DHT22;39101;53.478;6.158;2024-02-21T12:14:32;9.70;99.90
51500;DHT22;39101;53.478;6.158;2024-02-21T12:16:59;9.70;99.90
51500;DHT22;39101;53.478;6.158;2024-02-21T12:19:25;9.60;99.90
51500;DHT22;39101;53.478;6.158;2024-02-21T12:21:51;9.80;99.90
51500;DHT22;39101;53.478;6.158;2024-02-21T12:24:21;9.70;99.90
51500;DHT22;39101;53.478;6.158;2024-02-21T12:26:48;9.70;99.90
51500;DHT22;39101;53.478;6.158;2024-02-21T12:29:14;9.60;99.90
51500;DHT22;39101;53.478;6.158;2024-02-21T12:31:40;9.70;99.90
51500;DHT22;39101;53.478;6.158;2024-02-21T12:34:06;9.70;99.90
51500;DHT22;39101;53.478;6.158;2024-02-21T12:36:32;9.70;99.90
51500;DHT22;39101;53.478;6.158;2024-02-21T12:38:58;9.60;99.90
51500;DHT22;39101;53.478;6.158;2024-02-21T12:41:23;9.70;99.90
51500;DHT22;39101;53.478;6.158;2024-02-21T12:43:51;9.60;99.90
51500;DHT22;39101;53.478;6.158;2024-02-21T12:46:16;9.80;99.90
51500;DHT22;39101;53.478;6.158;2024-02-21T12:48:42;9.60;99.90
51500;DHT22;39101;53.478;6.158;2024-02-21T12:51:08;9.70;99.90
51500;DHT22;39101;53.478;6.158;2024-02-21T12:53:33;9.70;99.90
51500;DHT22;39101;53.478;6.158;2024-02-21T12:56:00;9.70;99.90
51500;DHT22;39101;53.478;6.158;2024-02-21T12:58:25;9.70;99.90
51500;DHT22;39101;53.478;6.158;2024-02-21T13:00:51;9.70;99.90
51500;DHT22;39101;53.478;6.158;2024-02-21T13:03:17;9.70;99.90
51500;DHT22;39101;53.478;6.158;2024-02-21T13:05:42;10.00;99.90
51500;DHT22;39101;53.478;6.158;2024-02-21T13:08:11;9.90;99.90
51500;DHT22;39101;53.478;6.158;2024-02-21T13:10:37;9.90;99.90
51500;DHT22;39101;53.478;6.158;2024-02-21T13:13:03;9.70;99.90
51500;DHT22;39101;53.478;6.158;2024-02-21T13:15:29;10.00;99.90
51500;DHT22;39101;53.478;6.158;2024-02-21T13:17:58;9.90;99.90
51500;DHT22;39101;53.478;6.158;2024-02-21T13:20:25;9.90;99.90
51500;DHT22;39101;53.478;6.158;2024-02-21T13:22:51;10.00;99.90
51500;DHT22;39101;53.478;6.158;2024-02-21T13:25:17;9.90;99.90
51500;DHT22;39101;53.478;6.158;2024-02-21T13:27:46;9.80;99.90
51500;DHT22;39101;53.478;6.158;2024-02-21T13:30:12;9.70;99.90
51500;DHT22;39101;53.478;6.158;2024-02-21T13:32:38;10.00;99.90
51500;DHT22;39101;53.478;6.158;2024-02-21T13:35:04;9.80;99.90
51500;DHT22;39101;53.478;6.158;2024-02-21T13:37:30;9.90;99.90
51500;DHT22;39101;53.478;6.158;2024-02-21T13:39:55;9.90;99.90
51500;DHT22;39101;53.478;6.158;2024-02-21T13:42:21;9.80;99.90
51500;DHT22;39101;53.478;6.158;2024-02-21T13:44:47;9.90;99.90
51500;DHT22;39101;53.478;6.158;2024-02-21T13:47:14;9.80;99.90
51500;DHT22;39101;53.478;6.158;2024-02-21T13:49:40;9.80;99.90
51500;DHT22;39101;53.478;6.158;2024-02-21T13:52:07;9.90;99.90
51500;DHT22;39101;53.478;6.158;2024-02-21T13:54:32;9.80;99.90
51500;DHT22;39101;53.478;6.158;2024-02-21T13:56:58;9.60;99.90
51500;DHT22;39101;53.478;6.158;2024-02-21T13:59:24;9.60;99.90
51500;DHT22;39101;53.478;6.158;2024-02-21T14:01:51;9.50;99.90
51500;DHT22;39101;53.478;6.158;2024-02-21T14:04:17;9.70;99.90
51500;DHT22;39101;53.478;6.158;2024-02-21T14:06:43;9.70;99.90
51500;DHT22;39101;53.478;6.158;2024-02-21T14:09:12;9.50;99.90
51500;DHT22;39101;53.478;6.158;2024-02-21T14:11:38;9.60;99.90
51500;DHT22;39101;53.478;6.158;2024-02-21T14:14:05;9.40;99.90
51500;DHT22;39101;53.478;6.158;2024-02-21T14:16:31;9.60;99.90
51500;DHT22;39101;53.478;6.158;2024-02-21T14:18:57;9.40;99.90
51500;DHT22;39101;53.478;6.158;2024-02-21T14:21:23;9.40;99.90
51500;DHT22;39101;53.478;6.158;2024-02-21T14:23:48;9.40;99.90
51500;DHT22;39101;53.478;6.158;2024-02-21T14:26:14;9.50;99.90
51500;DHT22;39101;53.478;6.158;2024-02-21T14:28:40;9.40;99.90
51500;DHT22;39101;53.478;6.158;2024-02-21T14:31:07;9.30;99.90
51500;DHT22;39101;53.478;6.158;2024-02-21T14:33:37;9.40;99.90
51500;DHT22;39101;53.478;6.158;2024-02-21T14:36:03;9.30;99.90
51500;DHT22;39101;53.478;6.158;2024-02-21T14:38:29;9.30;99.90
51500;DHT22;39101;53.478;6.158;2024-02-21T14:40:55;9.30;99.90
51500;DHT22;39101;53.478;6.158;2024-02-21T14:43:21;9.50;99.90
51500;DHT22;39101;53.478;6.158;2024-02-21T14:45:47;9.30;99.90
51500;DHT22;39101;53.478;6.158;2024-02-21T14:48:13;9.40;99.90
51500;DHT22;39101;53.478;6.158;2024-02-21T14:50:39;9.40;99.90
51500;DHT22;39101;53.478;6.158;2024-02-21T14:53:05;9.30;99.90
51500;DHT22;39101;53.478;6.158;2024-02-21T14:55:33;9.40;99.90
51500;DHT22;39101;53.478;6.158;2024-02-21T14:57:59;9.30;99.90
51500;DHT22;39101;53.478;6.158;2024-02-21T15:00:26;9.40;99.90
51500;DHT22;39101;53.478;6.158;2024-02-21T15:02:58;9.40;99.90
51500;DHT22;39101;53.478;6.158;2024-02-21T15:05:24;9.30;99.90
51500;DHT22;39101;53.478;6.158;2024-02-21T15:07:51;9.30;99.90
51500;DHT22;39101;53.478;6.158;2024-02-21T15:10:17;9.30;99.90
51500;DHT22;39101;53.478;6.158;2024-02-21T15:12:46;9.20;99.90
51500;DHT22;39101;53.478;6.158;2024-02-21T15:15:12;9.30;99.90
51500;DHT22;39101;53.478;6.158;2024-02-21T15:17:38;9.10;99.90
51500;DHT22;39101;53.478;6.158;2024-02-21T15:20:04;9.10;99.90
51500;DHT22;39101;53.478;6.158;2024-02-21T15:22:35;9.10;99.90
51500;DHT22;39101;53.478;6.158;2024-02-21T15:25:01;9.20;99.90
51500;DHT22;39101;53.478;6.158;2024-02-21T15:27:30;9.20;99.90
51500;DHT22;39101;53.478;6.158;2024-02-21T15:29:55;9.00;99.90
51500;DHT22;39101;53.478;6.158;2024-02-21T15:32:23;9.00;99.90
51500;DHT22;39101;53.478;6.158;2024-02-21T15:34:48;9.10;99.90
51500;DHT22;39101;53.478;6.158;2024-02-21T15:37:14;8.90;99.90
51500;DHT22;39101;53.478;6.158;2024-02-21T15:39:43;8.90;99.90
51500;DHT22;39101;53.478;6.158;2024-02-21T15:42:11;9.00;99.90
51500;DHT22;39101;53.478;6.158;2024-02-21T15:44:37;9.00;99.90
51500;DHT22;39101;53.478;6.158;2024-02-21T15:47:03;9.10;99.90
51500;DHT22;39101;53.478;6.158;2024-02-21T15:49:28;8.90;99.90
51500;DHT22;39101;53.478;6.158;2024-02-21T15:51:54;9.00;99.90